sensor_id;sensor_type;location;lat;lon;timestamp;pressure;altitude;pressure_sealevel;temperature;humidity
23363;BME280;11853;48.080;11.960;2022-12-07T00:01:19;94702.72;;;4.58;100.00
23363;BME280;11853;48.080;11.960;2022-12-07T00:03:47;94693.88;;;4.59;100.00
23363;BME280;11853;48.080;11.960;2022-12-07T00:06:17;94695.78;;;4.57;100.00
23363;BME280;11853;48.080;11.960;2022-12-07T00:08:43;94702.00;;;4.56;100.00
23363;BME280;11853;48.080;11.960;2022-12-07T00:11:15;94696.84;;;4.55;100.00
23363;BME280;11853;48.080;11.960;2022-12-07T00:13:42;94706.53;;;4.54;100.00
23363;BME280;11853;48.080;11.960;2022-12-07T00:16:15;94700.69;;;4.50;100.00
23363;BME280;11853;48.080;11.960;2022-12-07T00:18:44;94696.03;;;4.54;100.00
23363;BME280;11853;48.080;11.960;2022-12-07T00:21:11;94695.53;;;4.60;100.00
23363;BME280;11853;48.080;11.960;2022-12-07T00:23:37;94689.47;;;4.60;100.00
23363;BME280;11853;48.080;11.960;2022-12-07T00:26:18;94693.28;;;4.56;100.00
23363;BME280;11853;48.080;11.960;2022-12-07T00:28:49;94688.53;;;4.49;100.00
23363;BME280;11853;48.080;11.960;2022-12-07T00:31:17;94691.03;;;4.51;100.00
23363;BME280;11853;48.080;11.960;2022-12-07T00:33:43;94689.13;;;4.53;100.00
23363;BME280;11853;48.080;11.960;2022-12-07T00:36:12;94685.66;;;4.53;100.00
23363;BME280;11853;48.080;11.960;2022-12-07T00:38:39;94691.75;;;4.53;100.00
23363;BME280;11853;48.080;11.960;2022-12-07T00:41:08;94680.28;;;4.54;100.00
23363;BME280;11853;48.080;11.960;2022-12-07T00:43:34;94687.22;;;4.55;100.00
23363;BME280;11853;48.080;11.960;2022-12-07T00:46:00;94683.97;;;4.51;100.00
23363;BME280;11853;48.080;11.960;2022-12-07T00:48:26;94689.72;;;4.45;100.00
23363;BME280;11853;48.080;11.960;2022-12-07T00:50:52;94684.94;;;4.50;100.00
23363;BME280;11853;48.080;11.960;2022-12-07T00:53:18;94690.28;;;4.60;100.00
23363;BME280;11853;48.080;11.960;2022-12-07T00:55:44;94690.53;;;4.57;100.00
23363;BME280;11853;48.080;11.960;2022-12-07T00:58:10;94676.72;;;4.55;100.00
23363;BME280;11853;48.080;11.960;2022-12-07T01:00:38;94681.97;;;4.55;100.00
23363;BME280;11853;48.080;11.960;2022-12-07T01:03:05;94678.13;;;4.59;100.00
23363;BME280;11853;48.080;11.960;2022-12-07T01:05:31;94681.59;;;4.48;100.00
23363;BME280;11853;48.080;11.960;2022-12-07T01:07:57;94684.34;;;4.47;100.00
23363;BME280;11853;48.080;11.960;2022-12-07T01:10:23;94678.47;;;4.43;100.00
23363;BME280;11853;48.080;11.960;2022-12-07T01:12:48;94681.09;;;4.43;100.00
23363;BME280;11853;48.080;11.960;2022-12-07T01:15:14;94683.28;;;4.49;100.00
23363;BME280;11853;48.080;11.960;2022-12-07T01:17:40;94684.09;;;4.50;100.00
23363;BME280;11853;48.080;11.960;2022-12-07T01:20:06;94686.00;;;4.48;100.00
23363;BME280;11853;48.080;11.960;2022-12-07T01:22:37;94681.72;;;4.47;100.00
23363;BME280;11853;48.080;11.960;2022-12-07T01:25:03;94683.72;;;4.43;100.00
23363;BME280;11853;48.080;11.960;2022-12-07T01:27:29;94687.66;;;4.38;100.00
23363;BME280;11853;48.080;11.960;2022-12-07T01:29:54;94676.94;;;4.41;100.00
23363;BME280;11853;48.080;11.960;2022-12-07T01:32:20;94681.25;;;4.42;100.00
23363;BME280;11853;48.080;11.960;2022-12-07T01:34:48;94684.44;;;4.45;100.00
23363;BME280;11853;48.080;11.960;2022-12-07T01:37:13;94689.84;;;4.44;100.00
23363;BME280;11853;48.080;11.960;2022-12-07T01:39:39;94683.13;;;4.40;100.00
23363;BME280;11853;48.080;11.960;2022-12-07T01:42:05;94679.09;;;4.36;100.00
23363;BME280;11853;48.080;11.960;2022-12-07T01:44:31;94681.47;;;4.39;100.00
23363;BME280;11853;48.080;11.960;2022-12-07T01:47:03;94681.72;;;4.36;100.00
23363;BME280;11853;48.080;11.960;2022-12-07T01:49:44;94684.22;;;4.37;100.00
23363;BME280;11853;48.080;11.960;2022-12-07T01:54:44;94674.78;;;4.35;100.00
23363;BME280;11853;48.080;11.960;2022-12-07T01:57:11;94679.09;;;4.36;100.00
23363;BME280;11853;48.080;11.960;2022-12-07T01:59:41;94678.13;;;4.37;100.00
23363;BME280;11853;48.080;11.960;2022-12-07T02:02:15;94675.88;;;4.32;100.00
23363;BME280;11853;48.080;11.960;2022-12-07T02:04:43;94665.72;;;4.39;100.00
23363;BME280;11853;48.080;11.960;2022-12-07T02:07:09;94676.72;;;4.33;100.00
23363;BME280;11853;48.080;11.960;2022-12-07T02:09:35;94679.69;;;4.39;100.00
23363;BME280;11853;48.080;11.960;2022-12-07T02:12:01;94675.63;;;4.35;100.00
23363;BME280;11853;48.080;11.960;2022-12-07T02:14:27;94666.91;;;4.35;100.00
23363;BME280;11853;48.080;11.960;2022-12-07T02:25:06;94673.13;;;4.34;100.00
23363;BME280;11853;48.080;11.960;2022-12-07T02:27:46;94677.88;;;4.40;100.00
23363;BME280;11853;48.080;11.960;2022-12-07T02:30:19;94673.94;;;4.45;100.00
23363;BME280;11853;48.080;11.960;2022-12-07T02:33:22;94670.38;;;4.35;100.00
23363;BME280;11853;48.080;11.960;2022-12-07T02:35:59;94670.25;;;4.25;100.00
23363;BME280;11853;48.080;11.960;2022-12-07T02:38:54;94675.25;;;4.28;100.00
23363;BME280;11853;48.080;11.960;2022-12-07T02:41:29;94671.56;;;4.31;100.00
23363;BME280;11853;48.080;11.960;2022-12-07T02:44:02;94665.25;;;4.34;100.00
23363;BME280;11853;48.080;11.960;2022-12-07T02:46:37;94668.34;;;4.39;100.00
23363;BME280;11853;48.080;11.960;2022-12-07T02:49:04;94665.13;;;4.35;100.00
23363;BME280;11853;48.080;11.960;2022-12-07T02:51:32;94663.09;;;4.27;100.00
23363;BME280;11853;48.080;11.960;2022-12-07T02:53:59;94664.28;;;4.23;100.00
23363;BME280;11853;48.080;11.960;2022-12-07T03:12:29;94661.88;;;4.32;100.00
23363;BME280;11853;48.080;11.960;2022-12-07T03:15:16;94665.81;;;4.26;100.00
23363;BME280;11853;48.080;11.960;2022-12-07T03:17:46;94669.53;;;4.23;100.00
23363;BME280;11853;48.080;11.960;2022-12-07T03:20:16;94671.22;;;4.24;100.00
23363;BME280;11853;48.080;11.960;2022-12-07T03:22:46;94662.97;;;4.29;100.00
23363;BME280;11853;48.080;11.960;2022-12-07T03:25:14;94657.59;;;4.31;100.00
23363;BME280;11853;48.080;11.960;2022-12-07T03:27:49;94657.38;;;4.34;100.00
23363;BME280;11853;48.080;11.960;2022-12-07T03:30:20;94661.19;;;4.29;100.00
23363;BME280;11853;48.080;11.960;2022-12-07T03:35:31;94657.38;;;4.34;100.00
23363;BME280;11853;48.080;11.960;2022-12-07T03:42:57;94658.31;;;4.21;100.00
23363;BME280;11853;48.080;11.960;2022-12-07T03:48:10;94655.69;;;4.33;100.00
23363;BME280;11853;48.080;11.960;2022-12-07T03:50:45;94651.16;;;4.35;100.00
23363;BME280;11853;48.080;11.960;2022-12-07T03:55:55;94650.44;;;4.33;100.00
23363;BME280;11853;48.080;11.960;2022-12-07T03:58:22;94639.13;;;4.32;100.00
23363;BME280;11853;48.080;11.960;2022-12-07T04:00:50;94647.09;;;4.31;100.00
23363;BME280;11853;48.080;11.960;2022-12-07T04:03:16;94644.47;;;4.31;100.00
23363;BME280;11853;48.080;11.960;2022-12-07T04:05:42;94643.28;;;4.35;100.00
23363;BME280;11853;48.080;11.960;2022-12-07T04:08:08;94638.88;;;4.35;100.00
23363;BME280;11853;48.080;11.960;2022-12-07T04:10:34;94644.81;;;4.37;100.00
23363;BME280;11853;48.080;11.960;2022-12-07T04:13:00;94635.28;;;4.36;100.00
23363;BME280;11853;48.080;11.960;2022-12-07T04:15:26;94631.09;;;4.34;100.00
23363;BME280;11853;48.080;11.960;2022-12-07T04:17:51;94632.19;;;4.31;100.00
23363;BME280;11853;48.080;11.960;2022-12-07T04:20:17;94632.06;;;4.33;100.00
23363;BME280;11853;48.080;11.960;2022-12-07T04:22:43;94629.69;;;4.29;100.00
23363;BME280;11853;48.080;11.960;2022-12-07T04:25:09;94640.44;;;4.26;100.00
23363;BME280;11853;48.080;11.960;2022-12-07T04:27:34;94638.88;;;4.24;100.00
23363;BME280;11853;48.080;11.960;2022-12-07T04:30:00;94639.72;;;4.24;100.00
23363;BME280;11853;48.080;11.960;2022-12-07T04:32:26;94631.59;;;4.27;100.00
23363;BME280;11853;48.080;11.960;2022-12-07T04:34:51;94632.75;;;4.23;100.00
23363;BME280;11853;48.080;11.960;2022-12-07T04:37:17;94636.84;;;4.27;100.00
23363;BME280;11853;48.080;11.960;2022-12-07T04:39:43;94638.50;;;4.28;100.00
23363;BME280;11853;48.080;11.960;2022-12-07T04:42:10;94642.56;;;4.21;100.00
23363;BME280;11853;48.080;11.960;2022-12-07T04:44:36;94650.06;;;4.26;100.00
23363;BME280;11853;48.080;11.960;2022-12-07T04:47:02;94650.44;;;4.33;100.00
23363;BME280;11853;48.080;11.960;2022-12-07T04:49:28;94651.28;;;4.33;100.00
23363;BME280;11853;48.080;11.960;2022-12-07T04:51:53;94646.03;;;4.33;100.00
23363;BME280;11853;48.080;11.960;2022-12-07T04:54:19;94633.25;;;4.28;100.00
23363;BME280;11853;48.080;11.960;2022-12-07T04:56:44;94631.59;;;4.27;100.00
23363;BME280;11853;48.080;11.960;2022-12-07T04:59:11;94628.00;;;4.28;100.00
23363;BME280;11853;48.080;11.960;2022-12-07T05:01:37;94631.34;;;4.19;100.00
23363;BME280;11853;48.080;11.960;2022-12-07T05:04:03;94636.13;;;4.25;100.00
23363;BME280;11853;48.080;11.960;2022-12-07T05:06:28;94631.34;;;4.31;100.00
23363;BME280;11853;48.080;11.960;2022-12-07T05:08:54;94637.31;;;4.33;100.00
23363;BME280;11853;48.080;11.960;2022-12-07T05:11:20;94636.84;;;4.27;100.00
23363;BME280;11853;48.080;11.960;2022-12-07T05:14:10;94627.31;;;4.26;100.00
23363;BME280;11853;48.080;11.960;2022-12-07T05:16:36;94643.06;;;4.26;100.00
23363;BME280;11853;48.080;11.960;2022-12-07T05:19:03;94643.16;;;4.25;100.00
23363;BME280;11853;48.080;11.960;2022-12-07T05:21:29;94644.47;;;4.19;100.00
23363;BME280;11853;48.080;11.960;2022-12-07T05:23:54;94633.50;;;4.25;100.00
23363;BME280;11853;48.080;11.960;2022-12-07T05:26:20;94639.72;;;4.24;100.00
23363;BME280;11853;48.080;11.960;2022-12-07T05:28:50;94643.28;;;4.23;100.00
23363;BME280;11853;48.080;11.960;2022-12-07T05:31:16;94638.97;;;4.22;100.00
23363;BME280;11853;48.080;11.960;2022-12-07T05:33:41;94637.31;;;4.21;100.00
23363;BME280;11853;48.080;11.960;2022-12-07T05:36:07;94625.63;;;4.25;100.00
23363;BME280;11853;48.080;11.960;2022-12-07T05:38:33;94634.22;;;4.16;100.00
23363;BME280;11853;48.080;11.960;2022-12-07T05:41:03;94641.59;;;4.11;100.00
23363;BME280;11853;48.080;11.960;2022-12-07T05:43:29;94645.69;;;4.15;100.00
23363;BME280;11853;48.080;11.960;2022-12-07T05:45:55;94635.88;;;4.17;100.00
23363;BME280;11853;48.080;11.960;2022-12-07T05:48:20;94632.56;;;4.15;100.00
23363;BME280;11853;48.080;11.960;2022-12-07T05:50:49;94632.06;;;4.21;100.00
23363;BME280;11853;48.080;11.960;2022-12-07T05:53:15;94639.38;;;4.18;100.00
23363;BME280;11853;48.080;11.960;2022-12-07T05:55:41;94642.44;;;4.12;100.00
23363;BME280;11853;48.080;11.960;2022-12-07T05:58:06;94636.59;;;4.08;100.00
23363;BME280;11853;48.080;11.960;2022-12-07T06:00:50;94640.19;;;4.07;100.00
23363;BME280;11853;48.080;11.960;2022-12-07T06:03:16;94634.94;;;4.07;100.00
23363;BME280;11853;48.080;11.960;2022-12-07T06:05:42;94634.56;;;4.00;100.00
23363;BME280;11853;48.080;11.960;2022-12-07T06:08:07;94638.72;;;4.03;100.00
23363;BME280;11853;48.080;11.960;2022-12-07T06:10:33;94647.56;;;4.02;100.00
23363;BME280;11853;48.080;11.960;2022-12-07T06:12:59;94638.97;;;4.00;100.00
23363;BME280;11853;48.080;11.960;2022-12-07T06:15:24;94642.56;;;3.99;100.00
23363;BME280;11853;48.080;11.960;2022-12-07T06:17:50;94646.34;;;3.95;100.00
23363;BME280;11853;48.080;11.960;2022-12-07T06:20:15;94632.31;;;3.96;100.00
23363;BME280;11853;48.080;11.960;2022-12-07T06:22:41;94633.38;;;3.93;100.00
23363;BME280;11853;48.080;11.960;2022-12-07T06:25:07;94648.53;;;4.01;100.00
23363;BME280;11853;48.080;11.960;2022-12-07T06:27:32;94646.16;;;3.98;100.00
23363;BME280;11853;48.080;11.960;2022-12-07T06:29:58;94640.91;;;3.98;100.00
23363;BME280;11853;48.080;11.960;2022-12-07T06:32:24;94651.50;;;4.07;100.00
23363;BME280;11853;48.080;11.960;2022-12-07T06:34:51;94651.75;;;4.04;100.00
23363;BME280;11853;48.080;11.960;2022-12-07T06:37:16;94657.34;;;4.00;100.00
23363;BME280;11853;48.080;11.960;2022-12-07T06:39:42;94661.91;;;3.98;100.00
23363;BME280;11853;48.080;11.960;2022-12-07T06:42:08;94659.38;;;3.96;100.00
23363;BME280;11853;48.080;11.960;2022-12-07T06:44:33;94663.78;;;3.96;100.00
23363;BME280;11853;48.080;11.960;2022-12-07T06:46:59;94661.16;;;3.96;100.00
23363;BME280;11853;48.080;11.960;2022-12-07T06:49:24;94651.00;;;3.91;100.00
23363;BME280;11853;48.080;11.960;2022-12-07T06:51:50;94669.88;;;3.96;100.00
23363;BME280;11853;48.080;11.960;2022-12-07T06:54:16;94665.34;;;3.98;100.00
23363;BME280;11853;48.080;11.960;2022-12-07T06:56:42;94670.97;;;4.05;100.00
23363;BME280;11853;48.080;11.960;2022-12-07T06:59:08;94671.22;;;4.13;100.00
23363;BME280;11853;48.080;11.960;2022-12-07T07:01:34;94675.75;;;4.45;100.00
23363;BME280;11853;48.080;11.960;2022-12-07T07:04:00;94675.25;;;4.62;100.00
23363;BME280;11853;48.080;11.960;2022-12-07T07:06:26;94670.97;;;4.61;100.00
23363;BME280;11853;48.080;11.960;2022-12-07T07:08:51;94677.63;;;4.65;100.00
23363;BME280;11853;48.080;11.960;2022-12-07T07:11:17;94671.91;;;4.60;100.00
23363;BME280;11853;48.080;11.960;2022-12-07T07:13:43;94673.94;;;4.57;100.00
23363;BME280;11853;48.080;11.960;2022-12-07T07:16:09;94673.47;;;4.63;100.00
23363;BME280;11853;48.080;11.960;2022-12-07T07:18:36;94676.47;;;4.69;100.00
23363;BME280;11853;48.080;11.960;2022-12-07T07:21:02;94678.59;;;4.76;100.00
23363;BME280;11853;48.080;11.960;2022-12-07T07:23:28;94680.50;;;4.62;100.00
23363;BME280;11853;48.080;11.960;2022-12-07T07:25:53;94678.13;;;4.59;100.00
23363;BME280;11853;48.080;11.960;2022-12-07T07:28:19;94677.41;;;4.57;100.00
23363;BME280;11853;48.080;11.960;2022-12-07T07:30:44;94679.19;;;4.45;100.00
23363;BME280;11853;48.080;11.960;2022-12-07T07:33:10;94683.63;;;4.45;100.00
23363;BME280;11853;48.080;11.960;2022-12-07T07:35:36;94681.00;;;4.45;100.00
23363;BME280;11853;48.080;11.960;2022-12-07T07:38:02;94681.72;;;4.36;100.00
23363;BME280;11853;48.080;11.960;2022-12-07T07:40:28;94685.53;;;4.32;100.00
23363;BME280;11853;48.080;11.960;2022-12-07T07:42:55;94680.75;;;4.25;100.00
23363;BME280;11853;48.080;11.960;2022-12-07T07:45:22;94684.56;;;4.21;100.00
23363;BME280;11853;48.080;11.960;2022-12-07T07:47:48;94682.88;;;4.20;100.00
23363;BME280;11853;48.080;11.960;2022-12-07T07:50:14;94686.00;;;4.25;100.00
23363;BME280;11853;48.080;11.960;2022-12-07T07:52:40;94692.94;;;4.26;100.00
23363;BME280;11853;48.080;11.960;2022-12-07T07:55:06;94688.63;;;4.25;100.00
23363;BME280;11853;48.080;11.960;2022-12-07T07:57:34;94702.47;;;4.27;100.00
23363;BME280;11853;48.080;11.960;2022-12-07T08:00:00;94691.72;;;4.19;100.00
23363;BME280;11853;48.080;11.960;2022-12-07T08:02:25;94697.44;;;4.13;100.00
23363;BME280;11853;48.080;11.960;2022-12-07T08:04:51;94697.44;;;4.13;100.00
23363;BME280;11853;48.080;11.960;2022-12-07T08:07:16;94689.56;;;4.13;100.00
23363;BME280;11853;48.080;11.960;2022-12-07T08:09:42;94692.78;;;4.17;100.00
23363;BME280;11853;48.080;11.960;2022-12-07T08:12:08;94695.31;;;4.18;100.00
23363;BME280;11853;48.080;11.960;2022-12-07T08:14:34;94695.09;;;4.21;100.00
23363;BME280;11853;48.080;11.960;2022-12-07T08:16:59;94700.34;;;4.21;100.00
23363;BME280;11853;48.080;11.960;2022-12-07T08:19:25;94702.72;;;4.24;100.00
23363;BME280;11853;48.080;11.960;2022-12-07T08:21:51;94703.66;;;4.23;100.00
23363;BME280;11853;48.080;11.960;2022-12-07T08:24:16;94703.28;;;4.17;100.00
23363;BME280;11853;48.080;11.960;2022-12-07T08:26:42;94701.25;;;4.20;100.00
23363;BME280;11853;48.080;11.960;2022-12-07T08:29:08;94699.50;;;4.21;100.00
23363;BME280;11853;48.080;11.960;2022-12-07T08:31:33;94709.28;;;4.30;100.00
23363;BME280;11853;48.080;11.960;2022-12-07T08:33:59;94703.22;;;4.29;100.00
23363;BME280;11853;48.080;11.960;2022-12-07T08:36:25;94701.03;;;4.35;100.00
23363;BME280;11853;48.080;11.960;2022-12-07T08:38:50;94711.53;;;4.35;100.00
23363;BME280;11853;48.080;11.960;2022-12-07T08:41:16;94704.28;;;4.27;100.00
23363;BME280;11853;48.080;11.960;2022-12-07T08:43:42;94703.88;;;4.20;100.00
23363;BME280;11853;48.080;11.960;2022-12-07T08:46:21;94715.84;;;4.24;100.00
23363;BME280;11853;48.080;11.960;2022-12-07T08:48:55;94706.06;;;4.26;100.00
23363;BME280;11853;48.080;11.960;2022-12-07T08:51:23;94706.53;;;4.32;100.00
23363;BME280;11853;48.080;11.960;2022-12-07T08:53:49;94707.59;;;4.29;100.00
23363;BME280;11853;48.080;11.960;2022-12-07T08:56:16;94707.59;;;4.29;100.00
23363;BME280;11853;48.080;11.960;2022-12-07T08:58:42;94701.75;;;4.25;100.00
23363;BME280;11853;48.080;11.960;2022-12-07T09:01:08;94707.72;;;4.27;100.00
23363;BME280;11853;48.080;11.960;2022-12-07T09:03:33;94695.56;;;4.26;100.00
23363;BME280;11853;48.080;11.960;2022-12-07T09:05:59;94712.00;;;4.28;100.00
23363;BME280;11853;48.080;11.960;2022-12-07T09:08:32;94718.00;;;4.31;100.00
23363;BME280;11853;48.080;11.960;2022-12-07T09:10:59;94707.59;;;4.29;100.00
23363;BME280;11853;48.080;11.960;2022-12-07T09:13:24;94705.09;;;4.27;100.00
23363;BME280;11853;48.080;11.960;2022-12-07T09:15:49;94703.91;;;4.32;100.00
23363;BME280;11853;48.080;11.960;2022-12-07T09:18:15;94704.38;;;4.37;100.00
23363;BME280;11853;48.080;11.960;2022-12-07T09:20:41;94702.34;;;4.40;100.00
23363;BME280;11853;48.080;11.960;2022-12-07T09:23:06;94708.09;;;4.45;100.00
23363;BME280;11853;48.080;11.960;2022-12-07T09:25:33;94703.56;;;4.47;100.00
23363;BME280;11853;48.080;11.960;2022-12-07T09:27:58;94707.59;;;4.51;100.00
23363;BME280;11853;48.080;11.960;2022-12-07T09:30:26;94705.13;;;4.50;100.00
23363;BME280;11853;48.080;11.960;2022-12-07T09:32:56;94701.75;;;4.59;100.00
23363;BME280;11853;48.080;11.960;2022-12-07T09:35:25;94701.53;;;4.62;100.00
23363;BME280;11853;48.080;11.960;2022-12-07T09:37:51;94708.91;;;4.68;100.00
23363;BME280;11853;48.080;11.960;2022-12-07T09:40:18;94703.91;;;4.77;100.00
23363;BME280;11853;48.080;11.960;2022-12-07T09:42:47;94700.91;;;4.81;100.00
23363;BME280;11853;48.080;11.960;2022-12-07T09:45:18;94694.19;;;5.00;100.00
23363;BME280;11853;48.080;11.960;2022-12-07T09:47:45;94699.41;;;5.11;100.00
23363;BME280;11853;48.080;11.960;2022-12-07T09:50:15;94697.41;;;5.03;100.00
23363;BME280;11853;48.080;11.960;2022-12-07T09:52:43;94695.50;;;5.05;100.00
23363;BME280;11853;48.080;11.960;2022-12-07T09:55:12;94695.50;;;5.05;100.00
23363;BME280;11853;48.080;11.960;2022-12-07T09:57:39;94699.34;;;5.01;100.00
23363;BME280;11853;48.080;11.960;2022-12-07T10:00:11;94695.97;;;4.99;100.00
23363;BME280;11853;48.080;11.960;2022-12-07T10:02:43;94693.56;;;5.07;100.00
23363;BME280;11853;48.080;11.960;2022-12-07T10:05:14;94687.59;;;5.05;100.00
23363;BME280;11853;48.080;11.960;2022-12-07T10:07:40;94689.41;;;5.05;100.00
23363;BME280;11853;48.080;11.960;2022-12-07T10:10:13;94686.63;;;5.06;100.00
23363;BME280;11853;48.080;11.960;2022-12-07T10:13:00;94681.63;;;5.03;100.00
23363;BME280;11853;48.080;11.960;2022-12-07T10:15:46;94681.88;;;5.00;100.00
23363;BME280;11853;48.080;11.960;2022-12-07T10:21:01;94682.13;;;4.97;100.00
23363;BME280;11853;48.080;11.960;2022-12-07T10:23:27;94675.19;;;4.96;100.00
23363;BME280;11853;48.080;11.960;2022-12-07T10:25:53;94673.28;;;4.98;100.00
23363;BME280;11853;48.080;11.960;2022-12-07T10:28:20;94667.66;;;5.03;99.72
23363;BME280;11853;48.080;11.960;2022-12-07T10:30:59;94674.47;;;5.05;100.00
23363;BME280;11853;48.080;11.960;2022-12-07T10:36:36;94671.47;;;5.10;100.00
23363;BME280;11853;48.080;11.960;2022-12-07T10:39:11;94668.69;;;5.11;100.00
23363;BME280;11853;48.080;11.960;2022-12-07T10:42:00;94673.09;;;5.22;100.00
23363;BME280;11853;48.080;11.960;2022-12-07T10:44:31;94665.31;;;5.20;100.00
23363;BME280;11853;48.080;11.960;2022-12-07T10:57:32;94656.22;;;5.25;100.00
23363;BME280;11853;48.080;11.960;2022-12-07T11:00:21;94647.94;;;5.29;100.00
23363;BME280;11853;48.080;11.960;2022-12-07T11:03:09;94656.91;;;5.38;100.00
23363;BME280;11853;48.080;11.960;2022-12-07T11:13:56;94643.78;;;5.59;99.53
23363;BME280;11853;48.080;11.960;2022-12-07T11:16:38;94632.94;;;5.52;98.14
23363;BME280;11853;48.080;11.960;2022-12-07T11:29:52;94625.84;;;5.74;97.66
23363;BME280;11853;48.080;11.960;2022-12-07T11:41:02;94616.81;;;5.87;98.12
23363;BME280;11853;48.080;11.960;2022-12-07T11:43:52;94618.34;;;5.90;96.70
23363;BME280;11853;48.080;11.960;2022-12-07T11:46:20;94620.97;;;5.90;95.95
23363;BME280;11853;48.080;11.960;2022-12-07T11:49:01;94611.28;;;5.91;95.81
23363;BME280;11853;48.080;11.960;2022-12-07T11:51:30;94620.59;;;5.95;95.42
23363;BME280;11853;48.080;11.960;2022-12-07T11:54:19;94605.78;;;5.94;95.42
23363;BME280;11853;48.080;11.960;2022-12-07T11:56:49;94600.84;;;5.89;92.60
23363;BME280;11853;48.080;11.960;2022-12-07T11:59:22;94609.25;;;5.94;93.68
23363;BME280;11853;48.080;11.960;2022-12-07T12:01:56;94601.06;;;5.97;94.13
23363;BME280;11853;48.080;11.960;2022-12-07T12:04:45;94593.31;;;5.96;93.19
23363;BME280;11853;48.080;11.960;2022-12-07T12:07:17;94590.34;;;5.89;93.36
23363;BME280;11853;48.080;11.960;2022-12-07T12:09:58;94586.16;;;5.86;94.13
23363;BME280;11853;48.080;11.960;2022-12-07T12:15:23;94586.59;;;5.92;92.71
23363;BME280;11853;48.080;11.960;2022-12-07T12:23:36;94587.91;;;5.97;93.66
23363;BME280;11853;48.080;11.960;2022-12-07T12:26:07;94578.34;;;5.96;91.86
23363;BME280;11853;48.080;11.960;2022-12-07T12:33:48;94581.03;;;5.85;93.86
23363;BME280;11853;48.080;11.960;2022-12-07T12:47:00;94578.94;;;5.79;95.19
23363;BME280;11853;48.080;11.960;2022-12-07T12:49:38;94572.25;;;5.75;95.31
23363;BME280;11853;48.080;11.960;2022-12-07T12:54:38;94563.97;;;5.79;95.14
23363;BME280;11853;48.080;11.960;2022-12-07T12:57:29;94570.47;;;5.75;95.43
23363;BME280;11853;48.080;11.960;2022-12-07T13:13:29;94563.66;;;5.73;95.16
23363;BME280;11853;48.080;11.960;2022-12-07T13:18:51;94562.50;;;5.65;94.53
23363;BME280;11853;48.080;11.960;2022-12-07T13:29:17;94554.16;;;5.60;95.37
23363;BME280;11853;48.080;11.960;2022-12-07T13:31:50;94552.25;;;5.62;95.43
23363;BME280;11853;48.080;11.960;2022-12-07T13:34:35;94546.53;;;5.57;94.78
23363;BME280;11853;48.080;11.960;2022-12-07T13:37:10;94546.13;;;5.52;94.50
23363;BME280;11853;48.080;11.960;2022-12-07T13:39:51;94548.66;;;5.42;95.12
23363;BME280;11853;48.080;11.960;2022-12-07T13:42:30;94546.03;;;5.42;95.89
23363;BME280;11853;48.080;11.960;2022-12-07T13:44:57;94548.97;;;5.49;95.59
23363;BME280;11853;48.080;11.960;2022-12-07T13:47:47;94543.16;;;5.46;95.85
23363;BME280;11853;48.080;11.960;2022-12-07T13:50:31;94549.22;;;5.46;95.68
23363;BME280;11853;48.080;11.960;2022-12-07T13:52:58;94550.72;;;5.39;96.02
23363;BME280;11853;48.080;11.960;2022-12-07T13:55:24;94546.56;;;5.36;96.14
23363;BME280;11853;48.080;11.960;2022-12-07T13:57:53;94541.28;;;5.36;96.36
23363;BME280;11853;48.080;11.960;2022-12-07T14:00:29;94542.38;;;5.34;96.92
23363;BME280;11853;48.080;11.960;2022-12-07T14:03:29;94538.63;;;5.27;98.21
23363;BME280;11853;48.080;11.960;2022-12-07T14:06:15;94534.03;;;5.29;98.16
23363;BME280;11853;48.080;11.960;2022-12-07T14:08:43;94541.94;;;5.29;98.40
23363;BME280;11853;48.080;11.960;2022-12-07T14:11:16;94541.94;;;5.29;99.02
23363;BME280;11853;48.080;11.960;2022-12-07T14:13:55;94547.78;;;5.32;97.77
23363;BME280;11853;48.080;11.960;2022-12-07T14:16:25;94548.63;;;5.33;98.18
23363;BME280;11853;48.080;11.960;2022-12-07T14:18:53;94538.63;;;5.27;98.00
23363;BME280;11853;48.080;11.960;2022-12-07T14:21:21;94533.63;;;5.24;97.50
23363;BME280;11853;48.080;11.960;2022-12-07T14:24:15;94540.06;;;5.19;97.73
23363;BME280;11853;48.080;11.960;2022-12-07T14:26:44;94539.25;;;5.19;98.19
23363;BME280;11853;48.080;11.960;2022-12-07T14:31:52;94533.69;;;5.12;98.50
23363;BME280;11853;48.080;11.960;2022-12-07T14:34:20;94535.06;;;5.16;98.76
23363;BME280;11853;48.080;11.960;2022-12-07T14:36:46;94545.84;;;5.13;99.50
23363;BME280;11853;48.080;11.960;2022-12-07T14:39:11;94532.97;;;5.10;99.01
23363;BME280;11853;48.080;11.960;2022-12-07T14:41:37;94542.19;;;5.05;99.48
23363;BME280;11853;48.080;11.960;2022-12-07T14:44:22;94535.03;;;5.07;99.49
23363;BME280;11853;48.080;11.960;2022-12-07T14:46:49;94538.84;;;5.03;100.00
23363;BME280;11853;48.080;11.960;2022-12-07T14:49:16;94535.38;;;5.02;100.00
23363;BME280;11853;48.080;11.960;2022-12-07T14:51:42;94533.72;;;5.01;100.00
23363;BME280;11853;48.080;11.960;2022-12-07T14:54:16;94544.00;;;5.04;100.00
23363;BME280;11853;48.080;11.960;2022-12-07T14:56:43;94529.75;;;5.07;99.30
23363;BME280;11853;48.080;11.960;2022-12-07T14:59:10;94540.28;;;5.07;100.00
23363;BME280;11853;48.080;11.960;2022-12-07T15:01:36;94539.94;;;5.00;99.72
23363;BME280;11853;48.080;11.960;2022-12-07T15:04:02;94533.28;;;4.96;99.40
23363;BME280;11853;48.080;11.960;2022-12-07T15:06:27;94531.00;;;4.91;99.72
23363;BME280;11853;48.080;11.960;2022-12-07T15:08:53;94534.47;;;4.92;99.50
23363;BME280;11853;48.080;11.960;2022-12-07T15:11:20;94529.09;;;4.93;100.00
23363;BME280;11853;48.080;11.960;2022-12-07T15:13:45;94528.53;;;4.90;100.00
23363;BME280;11853;48.080;11.960;2022-12-07T15:16:30;94529.22;;;4.92;100.00
23363;BME280;11853;48.080;11.960;2022-12-07T15:18:56;94525.63;;;4.93;99.81
23363;BME280;11853;48.080;11.960;2022-12-07T15:21:21;94527.44;;;4.92;99.78